Time;durP1;ratioP1;P1;durP2;ratioP2;P2;SDS_P1;SDS_P2;PMS_P1;PMS_P2;Temp;Humidity;BMP_temperature;BMP_pressure;BME280_temperature;BME280_humidity;BME280_pressure;Samples;Min_cycle;Max_cycle;Signal;HPM_P1;HPM_P2
2023/08/07 00:01:45;;;;;;;0.90;0.47;;;;;;;25.95;46.01;101167.81;4909246;28;97183;-77
2023/08/07 00:04:12;;;;;;;0.73;0.45;;;;;;;25.95;45.28;101161.47;4908906;28;96976;-78
2023/08/07 00:06:38;;;;;;;1.20;0.65;;;;;;;25.95;45.58;101164.22;4909364;28;97313;-77
2023/08/07 00:09:05;;;;;;;0.60;0.43;;;;;;;25.95;45.49;101167.81;4909554;28;97820;-77
2023/08/07 00:11:31;;;;;;;1.10;0.50;;;;;;;25.95;45.54;101164.22;4910865;28;96937;-77
2023/08/07 00:13:59;;;;;;;2.20;0.57;;;;;;;25.95;45.48;101166.97;4909738;28;96922;-78
2023/08/07 00:16:25;;;;;;;1.05;0.40;;;;;;;25.94;45.75;101166.13;4909468;28;98378;-77
2023/08/07 00:18:55;;;;;;;1.70;0.88;;;;;;;25.94;45.35;101171.63;4909650;28;98424;-77
2023/08/07 00:21:23;;;;;;;0.98;0.50;;;;;;;25.94;45.72;101170.78;4911272;28;97216;-78
2023/08/07 00:23:50;;;;;;;1.20;0.77;;;;;;;25.94;45.48;101166.13;4906459;28;96957;-78
2023/08/07 00:26:16;;;;;;;1.08;0.57;;;;;;;25.93;45.53;101161.66;4911207;28;97948;-77
2023/08/07 00:28:43;;;;;;;1.80;0.60;;;;;;;25.94;45.89;101165.25;4911896;28;97443;-77
2023/08/07 00:31:10;;;;;;;1.27;0.50;;;;;;;25.93;45.83;101158.91;4894616;28;97936;-78
2023/08/07 00:33:37;;;;;;;0.65;0.35;;;;;;;25.93;45.56;101158.91;4908377;28;97447;-78
2023/08/07 00:36:04;;;;;;;1.25;0.47;;;;;;;25.92;45.45;101165.47;4911418;28;98320;-77
2023/08/07 00:38:30;;;;;;;1.00;0.40;;;;;;;25.93;45.44;101166.31;4909071;28;97679;-77
2023/08/07 00:40:59;;;;;;;1.73;0.77;;;;;;;25.92;45.31;101168.22;4902816;28;96910;-77
2023/08/07 00:43:26;;;;;;;1.20;0.45;;;;;;;25.92;45.45;101165.47;4886124;28;96932;-77
2023/08/07 00:45:53;;;;;;;1.38;0.50;;;;;;;25.91;45.43;101157.41;4906434;28;96919;-78
2023/08/07 00:48:19;;;;;;;0.77;0.43;;;;;;;25.92;45.57;101161.88;4904154;28;98321;-77
2023/08/07 00:50:48;;;;;;;1.10;0.45;;;;;;;25.91;45.56;101163.78;4908280;28;96956;-77
2023/08/07 00:53:14;;;;;;;1.58;0.50;;;;;;;25.91;45.49;101163.78;4903701;28;97149;-77
2023/08/07 00:55:42;;;;;;;1.10;0.43;;;;;;;25.91;45.52;101163.78;4899113;28;99120;-78
2023/08/07 00:58:09;;;;;;;0.85;0.40;;;;;;;25.92;45.52;101161.88;4892822;28;99674;-78
2023/08/07 01:00:36;;;;;;;0.77;0.40;;;;;;;25.91;45.14;101169.28;4899235;28;96785;-77
2023/08/07 01:03:06;;;;;;;0.88;0.60;;;;;;;25.91;45.51;101168.41;4905141;28;98567;-78
2023/08/07 01:05:34;;;;;;;1.40;0.60;;;;;;;25.89;45.44;101165.88;4888886;28;97611;-78
2023/08/07 01:08:02;;;;;;;1.00;0.55;;;;;;;25.91;45.54;101176.69;4907456;28;96800;-77
2023/08/07 01:10:55;;;;;;;1.33;0.43;;;;;;;25.90;45.45;101175.81;4910141;28;96705;-78
2023/08/07 01:13:34;;;;;;;1.20;0.50;;;;;;;25.90;45.39;101174.97;4905286;28;96674;-77
2023/08/07 01:16:08;;;;;;;0.90;0.50;;;;;;;25.89;45.52;101173.28;4903671;28;98085;-78
2023/08/07 01:18:36;;;;;;;1.13;0.50;;;;;;;25.89;45.54;101178.78;4887342;28;97450;-77
2023/08/07 01:21:03;;;;;;;0.80;0.50;;;;;;;25.89;45.41;101176.88;4909053;28;97738;-78
2023/08/07 01:23:30;;;;;;;1.30;0.70;;;;;;;25.89;45.32;101176.03;4906769;28;96904;-78
2023/08/07 01:25:57;;;;;;;0.90;0.52;;;;;;;25.89;45.45;101176.03;4907955;28;98604;-78
2023/08/07 01:28:36;;;;;;;1.35;0.68;;;;;;;25.88;45.52;101177.09;4909490;28;96870;-78
2023/08/07 01:31:09;;;;;;;0.60;0.40;;;;;;;25.88;45.46;101182.59;4891905;28;96938;-78
2023/08/07 01:33:47;;;;;;;1.05;0.43;;;;;;;25.87;45.53;101184.50;4919629;28;97210;-78
2023/08/07 01:36:16;;;;;;;0.98;0.50;;;;;;;25.87;45.47;101197.41;4899182;28;97553;-77
2023/08/07 01:38:46;;;;;;;0.80;0.40;;;;;;;25.88;45.53;101199.09;4910670;28;96753;-78
2023/08/07 01:41:13;;;;;;;1.00;0.40;;;;;;;25.86;45.48;101202.06;4889647;28;96842;-77
2023/08/07 01:43:40;;;;;;;1.25;0.50;;;;;;;25.87;45.63;101194.66;4911470;28;97618;-78
2023/08/07 01:46:06;;;;;;;1.25;0.50;;;;;;;25.87;45.46;101203.75;4906124;28;98531;-77
2023/08/07 01:48:33;;;;;;;1.10;0.40;;;;;;;25.86;45.21;101196.53;4910700;28;99891;-78
2023/08/07 01:51:00;;;;;;;1.30;0.47;;;;;;;25.86;45.53;101202.06;4911149;28;97104;-78
2023/08/07 01:53:26;;;;;;;0.82;0.38;;;;;;;25.86;45.43;101204.81;4912260;28;96912;-78
2023/08/07 01:55:53;;;;;;;1.20;0.50;;;;;;;25.85;45.43;101200.34;4893157;28;96959;-77
2023/08/07 01:58:20;;;;;;;1.65;0.93;;;;;;;25.86;45.81;101207.56;4910313;28;97454;-77
2023/08/07 02:00:46;;;;;;;0.73;0.55;;;;;;;25.85;45.53;101203.09;4893860;28;96886;-77
2023/08/07 02:03:13;;;;;;;0.77;0.38;;;;;;;25.86;45.81;101213.06;4910186;28;96778;-77
2023/08/07 02:05:40;;;;;;;0.75;0.40;;;;;;;25.86;45.43;101206.69;4892876;28;98113;-77
2023/08/07 02:08:06;;;;;;;0.65;0.40;;;;;;;25.86;45.40;101214.94;4908078;28;98852;-77
2023/08/07 02:10:33;;;;;;;1.88;0.35;;;;;;;25.86;45.49;101212.19;4899466;28;98133;-78
2023/08/07 02:12:59;;;;;;;1.02;0.52;;;;;;;25.85;45.50;101214.09;4906554;28;96679;-77
2023/08/07 02:15:26;;;;;;;0.55;0.40;;;;;;;25.86;45.24;101220.47;4904486;28;99186;-77
2023/08/07 02:17:53;;;;;;;0.60;0.40;;;;;;;25.85;45.58;101216.84;4903884;28;96717;-78
2023/08/07 02:20:19;;;;;;;1.10;0.40;;;;;;;25.86;45.48;101223.22;4910189;28;96793;-78
2023/08/07 02:22:46;;;;;;;0.50;0.38;;;;;;;25.85;45.76;101214.09;4895117;28;96655;-78
2023/08/07 02:25:13;;;;;;;0.70;0.40;;;;;;;25.85;45.41;101216.00;4905271;28;97278;-78
2023/08/07 02:27:39;;;;;;;0.55;0.32;;;;;;;25.85;45.50;101227.00;4908493;28;96898;-77
2023/08/07 02:30:07;;;;;;;0.85;0.50;;;;;;;25.84;45.40;101215.16;4909525;28;96791;-77
2023/08/07 02:32:33;;;;;;;1.40;0.47;;;;;;;25.84;45.47;101237.16;4904751;28;97403;-78
2023/08/07 02:35:00;;;;;;;0.88;0.50;;;;;;;25.84;45.43;101228.91;4910922;28;96630;-77
2023/08/07 02:37:26;;;;;;;0.80;0.40;;;;;;;25.84;45.76;101228.06;4907652;28;99352;-78
2023/08/07 02:39:53;;;;;;;0.57;0.30;;;;;;;25.84;45.42;101228.06;4911639;28;96820;-78
2023/08/07 02:42:20;;;;;;;0.77;0.40;;;;;;;25.84;45.47;101228.91;4910074;28;96959;-77
2023/08/07 02:44:46;;;;;;;0.57;0.38;;;;;;;25.83;45.47;101226.38;4911015;28;96910;-77
2023/08/07 02:47:13;;;;;;;0.57;0.30;;;;;;;25.83;45.44;101232.72;4910173;28;96705;-77
2023/08/07 02:49:39;;;;;;;0.82;0.30;;;;;;;25.82;45.36;101228.25;4911028;28;96659;-78
2023/08/07 02:52:06;;;;;;;0.85;0.40;;;;;;;25.83;45.49;101229.13;4912496;28;97398;-77
2023/08/07 02:54:36;;;;;;;0.73;0.40;;;;;;;25.82;45.51;101225.50;4912698;28;98764;-78
2023/08/07 02:57:03;;;;;;;1.52;0.50;;;;;;;25.82;45.32;101222.75;4897052;28;96887;-77
2023/08/07 02:59:30;;;;;;;0.65;0.40;;;;;;;25.81;45.38;101217.47;4909292;28;96736;-78
2023/08/07 03:01:57;;;;;;;0.93;0.40;;;;;;;25.82;45.55;101221.91;4913343;28;96903;-77
2023/08/07 03:04:23;;;;;;;0.85;0.50;;;;;;;25.82;45.48;101225.50;4909721;28;99221;-77
2023/08/07 03:06:50;;;;;;;0.32;0.30;;;;;;;25.81;45.55;101226.56;4913123;28;96864;-77
2023/08/07 03:09:16;;;;;;;1.23;0.55;;;;;;;25.82;45.55;101216.41;4893899;28;96740;-77
2023/08/07 03:11:43;;;;;;;1.55;0.60;;;;;;;25.81;45.48;101220.22;4913893;28;96795;-78
2023/08/07 03:14:09;;;;;;;1.30;0.50;;;;;;;25.81;45.63;101218.31;4912537;28;97353;-77
2023/08/07 03:16:36;;;;;;;0.50;0.30;;;;;;;25.81;45.42;101220.22;4893964;28;96841;-78
2023/08/07 03:19:03;;;;;;;0.70;0.30;;;;;;;25.80;45.39;101224.84;4915908;28;96776;-78
2023/08/07 03:21:29;;;;;;;0.70;0.40;;;;;;;25.80;45.64;101216.59;4916956;28;97043;-78
2023/08/07 03:23:56;;;;;;;0.47;0.30;;;;;;;25.80;45.34;101213.84;4912592;28;97851;-78
2023/08/07 03:26:23;;;;;;;0.90;0.50;;;;;;;25.80;45.81;101213.00;4893217;28;98872;-78
2023/08/07 03:28:50;;;;;;;0.98;0.50;;;;;;;25.79;45.34;101206.66;4913101;28;96777;-78
2023/08/07 03:31:17;;;;;;;0.63;0.40;;;;;;;25.80;45.24;101210.25;4895191;28;96758;-78
2023/08/07 03:33:45;;;;;;;0.50;0.20;;;;;;;25.79;45.39;101203.91;4905909;28;97044;-78
2023/08/07 03:36:13;;;;;;;0.85;0.50;;;;;;;25.79;45.38;101206.66;4910861;28;98598;-77
2023/08/07 03:38:40;;;;;;;0.60;0.40;;;;;;;25.79;45.26;101201.16;4894016;28;96650;-77
2023/08/07 03:41:07;;;;;;;1.02;0.40;;;;;;;25.79;45.32;101205.81;4907311;28;96729;-78
2023/08/07 03:43:35;;;;;;;0.80;0.40;;;;;;;25.78;45.38;101204.94;4909180;28;97839;-77
2023/08/07 03:46:02;;;;;;;0.65;0.40;;;;;;;25.79;45.44;101203.06;4912220;28;97304;-77
2023/08/07 03:48:30;;;;;;;0.88;0.40;;;;;;;25.78;45.55;101207.69;4896768;28;96733;-77
2023/08/07 03:51:08;;;;;;;1.52;0.57;;;;;;;25.79;45.51;101197.53;4912635;28;96813;-77
2023/08/07 03:53:38;;;;;;;1.08;0.40;;;;;;;25.77;45.33;101214.25;4912622;28;100498;-77
2023/08/07 03:56:05;;;;;;;1.15;0.43;;;;;;;25.77;45.27;101219.75;4895117;28;98476;-78
2023/08/07 03:58:33;;;;;;;0.60;0.40;;;;;;;25.77;45.29;101222.50;4912503;28;96759;-78
2023/08/07 04:00:59;;;;;;;0.70;0.50;;;;;;;25.77;45.47;101213.41;4896560;28;96839;-78
2023/08/07 04:03:26;;;;;;;0.93;0.63;;;;;;;25.76;45.51;101215.31;4913595;28;97783;-77
2023/08/07 04:05:54;;;;;;;0.88;0.50;;;;;;;25.76;45.35;101212.56;4895638;28;98305;-78
2023/08/07 04:08:22;;;;;;;1.35;0.50;;;;;;;25.76;45.45;101218.06;4911612;28;96723;-78
2023/08/07 04:11:05;;;;;;;0.60;0.40;;;;;;;25.76;45.38;101203.44;4908474;28;96879;-77
2023/08/07 04:13:33;;;;;;;1.43;0.53;;;;;;;25.75;45.40;101205.34;4905453;28;100066;-77
2023/08/07 04:16:01;;;;;;;1.27;0.55;;;;;;;25.76;45.58;101211.69;4907143;28;96859;-77
2023/08/07 04:18:28;;;;;;;0.88;0.32;;;;;;;25.76;45.66;101208.94;4908956;28;97964;-77
2023/08/07 04:20:56;;;;;;;0.88;0.50;;;;;;;25.75;45.45;101212.75;4911782;28;97095;-77
2023/08/07 04:23:23;;;;;;;0.70;0.30;;;;;;;25.76;45.17;101217.19;4909106;28;97893;-77
2023/08/07 04:25:51;;;;;;;1.25;0.50;;;;;;;25.75;45.39;101215.50;4908870;28;97976;-77
2023/08/07 04:28:19;;;;;;;0.98;0.40;;;;;;;25.74;45.41;101217.41;4901537;28;96737;-78
2023/08/07 04:30:50;;;;;;;0.73;0.45;;;;;;;25.75;45.40;101216.34;4912575;28;98252;-78
2023/08/07 04:33:17;;;;;;;0.82;0.40;;;;;;;25.75;45.21;101218.25;4889366;28;96930;-77
2023/08/07 04:35:44;;;;;;;0.70;0.40;;;;;;;25.75;45.43;101223.75;4910861;28;97675;-78
2023/08/07 04:38:10;;;;;;;0.95;0.40;;;;;;;25.74;45.54;101222.06;4912066;28;96913;-77
2023/08/07 04:40:37;;;;;;;1.15;0.40;;;;;;;25.74;45.58;101224.81;4912251;28;96616;-77
2023/08/07 04:43:04;;;;;;;0.77;0.30;;;;;;;25.74;45.42;101231.16;4913004;28;97546;-78
2023/08/07 04:45:30;;;;;;;0.90;0.60;;;;;;;25.73;45.53;101237.72;4911200;28;96835;-78
2023/08/07 04:47:57;;;;;;;1.05;0.50;;;;;;;25.74;45.13;101233.06;4908641;28;97006;-77
2023/08/07 04:50:23;;;;;;;0.98;0.50;;;;;;;25.74;45.31;101235.81;4906139;28;96636;-77
2023/08/07 04:52:50;;;;;;;1.33;0.38;;;;;;;25.73;45.76;101234.97;4911265;28;98015;-77
2023/08/07 04:55:16;;;;;;;1.05;0.57;;;;;;;25.73;45.40;101240.47;4893733;28;99644;-78
2023/08/07 04:57:43;;;;;;;1.17;0.40;;;;;;;25.73;45.35;101237.72;4909980;28;97502;-77
2023/08/07 05:00:10;;;;;;;0.80;0.40;;;;;;;25.73;45.43;101240.47;4909915;28;97162;-78
2023/08/07 05:02:37;;;;;;;0.82;0.35;;;;;;;25.72;45.42;101241.50;4907446;28;99000;-78
2023/08/07 05:05:04;;;;;;;1.10;0.50;;;;;;;25.72;45.30;101241.50;4905997;28;96788;-77
2023/08/07 05:07:33;;;;;;;0.60;0.40;;;;;;;25.74;45.33;101246.81;4890132;28;96868;-77
2023/08/07 05:10:01;;;;;;;1.35;0.40;;;;;;;25.72;45.38;101246.16;4904037;28;96924;-78
2023/08/07 05:12:28;;;;;;;1.00;0.30;;;;;;;25.73;45.61;101245.13;4909951;28;98805;-78
2023/08/07 05:14:55;;;;;;;0.85;0.47;;;;;;;25.72;45.24;101255.28;4910634;28;97685;-77
2023/08/07 05:17:21;;;;;;;1.77;0.50;;;;;;;25.72;45.29;101252.53;4909119;28;98159;-77
2023/08/07 05:19:48;;;;;;;0.55;0.30;;;;;;;25.72;45.32;101263.53;4895465;28;96804;-78
2023/08/07 05:22:15;;;;;;;1.27;0.80;;;;;;;25.73;45.46;101259.72;4894241;28;96774;-78
2023/08/07 05:24:43;;;;;;;1.02;0.40;;;;;;;25.73;45.30;101264.38;4911219;28;96696;-78
2023/08/07 05:27:10;;;;;;;0.90;0.50;;;;;;;25.72;45.36;101260.78;4898161;28;96776;-77
2023/08/07 05:29:43;;;;;;;0.70;0.30;;;;;;;25.73;45.36;101259.72;4898513;28;97002;-78
2023/08/07 05:32:11;;;;;;;0.85;0.40;;;;;;;25.71;45.39;101261.81;4911379;28;97037;-78
2023/08/07 05:34:38;;;;;;;1.05;0.40;;;;;;;25.71;45.33;101260.97;4916229;28;98101;-78
2023/08/07 05:37:06;;;;;;;0.50;0.40;;;;;;;25.72;45.35;101268.19;4915110;28;96923;-78
2023/08/07 05:39:32;;;;;;;0.93;0.40;;;;;;;25.72;45.28;101276.44;4921305;28;97100;-78
2023/08/07 05:41:59;;;;;;;1.00;0.40;;;;;;;25.70;45.29;101268.38;4903050;28;98298;-79
2023/08/07 05:44:26;;;;;;;1.75;0.63;;;;;;;25.71;45.26;101281.06;4905604;28;97471;-78
2023/08/07 05:46:53;;;;;;;0.85;0.50;;;;;;;25.71;45.32;101281.06;4895528;28;97409;-78
2023/08/07 05:49:20;;;;;;;0.75;0.50;;;;;;;25.71;45.05;101292.09;4905798;28;96884;-78
2023/08/07 05:51:50;;;;;;;0.85;0.50;;;;;;;25.70;45.21;101282.13;4905191;28;98060;-78
2023/08/07 05:54:17;;;;;;;1.13;0.50;;;;;;;25.72;45.13;101287.44;4912086;28;97037;-78
2023/08/07 05:56:44;;;;;;;0.80;0.40;;;;;;;25.70;45.21;101298.63;4903681;28;97645;-77
2023/08/07 05:59:10;;;;;;;0.75;0.30;;;;;;;25.70;45.35;101298.63;4907283;28;97120;-78
2023/08/07 06:01:37;;;;;;;0.63;0.40;;;;;;;25.70;45.37;101287.63;4909435;28;97270;-77
2023/08/07 06:04:04;;;;;;;0.80;0.50;;;;;;;25.70;45.20;101292.28;4902464;28;96883;-77
2023/08/07 06:06:34;;;;;;;0.90;0.40;;;;;;;25.70;45.32;101293.13;4903147;28;97033;-78
2023/08/07 06:09:02;;;;;;;1.27;0.50;;;;;;;25.70;45.26;101295.03;4904152;28;96834;-78
2023/08/07 06:11:29;;;;;;;1.33;0.50;;;;;;;25.69;45.22;101296.94;4905274;28;97707;-77
2023/08/07 06:13:56;;;;;;;1.58;0.60;;;;;;;25.69;45.31;101305.19;4906907;28;99135;-78
2023/08/07 06:16:22;;;;;;;1.08;0.40;;;;;;;25.70;45.23;101303.28;4900104;28;96779;-78
2023/08/07 06:18:49;;;;;;;0.85;0.50;;;;;;;25.70;45.44;101304.13;4898181;28;96782;-78
2023/08/07 06:21:16;;;;;;;1.08;0.50;;;;;;;25.70;44.85;101312.38;4908849;28;97260;-78
2023/08/07 06:23:42;;;;;;;0.98;0.38;;;;;;;25.69;45.37;101307.94;4887851;28;99807;-78
2023/08/07 06:26:09;;;;;;;0.90;0.52;;;;;;;25.69;45.06;101313.44;4900604;28;96848;-78
2023/08/07 06:28:39;;;;;;;0.65;0.40;;;;;;;25.69;45.09;101318.94;4904535;28;97235;-78
2023/08/07 06:31:08;;;;;;;1.05;0.45;;;;;;;25.69;45.62;101309.84;4889484;28;98393;-78
2023/08/07 06:33:35;;;;;;;1.08;0.40;;;;;;;25.69;45.28;101318.09;4903648;28;96987;-78
2023/08/07 06:36:03;;;;;;;0.75;0.40;;;;;;;25.69;45.22;101323.59;4907104;28;97048;-78
2023/08/07 06:38:30;;;;;;;1.08;0.40;;;;;;;25.68;45.40;101325.50;4905708;28;96846;-78
2023/08/07 06:40:57;;;;;;;1.52;0.45;;;;;;;25.68;45.25;101321.88;4909659;28;99789;-78
2023/08/07 06:43:24;;;;;;;1.60;0.70;;;;;;;25.68;45.35;101327.38;4909878;28;97094;-78
2023/08/07 06:45:52;;;;;;;1.10;0.38;;;;;;;25.69;45.31;101332.69;4910656;28;96844;-78
2023/08/07 06:48:18;;;;;;;1.77;0.65;;;;;;;25.68;45.38;101335.63;4911666;28;96940;-78
2023/08/07 06:50:49;;;;;;;1.20;0.50;;;;;;;25.69;45.20;101342.84;4903299;28;97627;-77
2023/08/07 06:53:15;;;;;;;0.70;0.30;;;;;;;25.67;45.35;101344.94;4901339;28;96821;-78
2023/08/07 06:55:43;;;;;;;0.88;0.60;;;;;;;25.66;45.47;101338.59;4904663;28;96939;-78
2023/08/07 06:58:10;;;;;;;1.95;0.50;;;;;;;25.67;45.35;101350.44;4905509;28;96734;-78
2023/08/07 07:00:37;;;;;;;1.67;0.57;;;;;;;25.67;45.23;101354.03;4909720;28;97636;-78
2023/08/07 07:03:04;;;;;;;1.52;0.60;;;;;;;25.67;45.27;101359.53;4902807;28;99423;-78
2023/08/07 07:05:32;;;;;;;1.05;0.40;;;;;;;25.69;45.37;101356.59;4904129;28;97296;-78
2023/08/07 07:07:59;;;;;;;1.25;0.60;;;;;;;25.67;45.26;101362.28;4909263;28;96909;-78
2023/08/07 07:10:25;;;;;;;0.80;0.40;;;;;;;25.67;45.35;101367.81;4907552;28;98639;-78
2023/08/07 07:12:52;;;;;;;1.33;0.73;;;;;;;25.68;45.23;101365.91;4901995;28;98600;-78
2023/08/07 07:15:19;;;;;;;0.82;0.40;;;;;;;25.68;45.32;101368.66;4906081;28;97360;-78
2023/08/07 07:17:45;;;;;;;0.70;0.30;;;;;;;25.66;45.17;101374.34;4899907;28;97646;-77
2023/08/07 07:20:12;;;;;;;0.90;0.40;;;;;;;25.67;44.95;101378.81;4891082;28;97526;-78
2023/08/07 07:22:39;;;;;;;1.35;0.50;;;;;;;25.67;45.62;101378.81;4900053;28;97025;-78
2023/08/07 07:25:06;;;;;;;1.00;0.52;;;;;;;25.68;45.44;101379.66;4908581;28;98819;-77
2023/08/07 07:27:32;;;;;;;1.48;0.63;;;;;;;25.66;45.08;101393.59;4907721;28;96751;-78
2023/08/07 07:29:59;;;;;;;1.52;0.50;;;;;;;25.65;45.56;101392.75;4907418;28;96911;-78
2023/08/07 07:32:26;;;;;;;1.15;0.63;;;;;;;25.67;44.95;101395.31;4914714;28;97971;-77
2023/08/07 07:34:52;;;;;;;0.73;0.40;;;;;;;25.68;45.31;101393.41;4908895;28;96767;-77
2023/08/07 07:37:19;;;;;;;1.02;0.40;;;;;;;25.67;45.21;101398.06;4914055;28;96912;-77
2023/08/07 07:39:45;;;;;;;1.85;0.57;;;;;;;25.69;45.14;101403.38;4908730;28;96680;-78
2023/08/07 07:42:12;;;;;;;1.35;0.55;;;;;;;25.67;45.00;101406.31;4915337;28;98105;-78
2023/08/07 07:44:39;;;;;;;1.90;0.50;;;;;;;25.67;45.42;101411.81;4912863;28;97306;-78
2023/08/07 07:47:07;;;;;;;1.42;0.55;;;;;;;25.67;45.22;101425.56;4896815;28;97008;-77
2023/08/07 07:49:36;;;;;;;1.25;0.52;;;;;;;25.68;45.28;101421.78;4906584;28;96891;-78
2023/08/07 07:52:03;;;;;;;1.08;0.40;;;;;;;25.69;45.33;101420.72;4906473;28;97397;-78
2023/08/07 07:54:30;;;;;;;0.82;0.40;;;;;;;25.69;45.44;101426.22;4909281;28;97000;-78
2023/08/07 07:56:56;;;;;;;0.63;0.32;;;;;;;25.70;44.50;101427.94;4913867;28;96680;-78
2023/08/07 07:59:23;;;;;;;1.15;0.52;;;;;;;25.69;45.20;101428.97;4914081;28;97545;-78
2023/08/07 08:01:51;;;;;;;0.75;0.43;;;;;;;25.70;44.79;101424.34;4914032;28;97484;-78
2023/08/07 08:04:19;;;;;;;1.85;0.50;;;;;;;25.70;45.13;101430.69;4909465;28;97274;-78
2023/08/07 08:06:48;;;;;;;1.75;0.63;;;;;;;25.69;45.27;101428.97;4894055;28;97024;-78
2023/08/07 08:09:15;;;;;;;1.05;0.38;;;;;;;25.71;44.97;101435.13;4906916;28;96836;-78
2023/08/07 08:11:42;;;;;;;1.58;0.45;;;;;;;25.72;45.19;101436.00;4909685;28;98004;-78
2023/08/07 08:14:08;;;;;;;1.58;0.70;;;;;;;25.72;45.30;101441.50;4896174;28;97040;-78
2023/08/07 08:16:35;;;;;;;0.68;0.47;;;;;;;25.72;45.26;101447.00;4910384;28;96757;-78
2023/08/07 08:19:02;;;;;;;0.88;0.43;;;;;;;25.71;45.17;101448.91;4911351;28;96707;-78
2023/08/07 08:21:30;;;;;;;0.85;0.50;;;;;;;25.71;45.32;101448.91;4911286;28;96988;-78
2023/08/07 08:23:57;;;;;;;1.08;0.40;;;;;;;25.71;45.17;101451.66;4905935;28;97412;-78
2023/08/07 08:26:24;;;;;;;1.35;0.60;;;;;;;25.72;45.41;101458.00;4912870;28;97759;-78
2023/08/07 08:28:50;;;;;;;0.90;0.52;;;;;;;25.72;45.16;101466.25;4905085;28;96823;-78
2023/08/07 08:31:17;;;;;;;1.38;0.75;;;;;;;25.72;45.28;101460.75;4901053;28;96637;-78
2023/08/07 08:33:43;;;;;;;0.70;0.50;;;;;;;25.72;45.43;101461.59;4895613;28;97491;-78
2023/08/07 08:36:10;;;;;;;1.90;0.60;;;;;;;25.71;45.12;101459.91;4890693;28;97116;-78
2023/08/07 08:38:36;;;;;;;1.58;0.50;;;;;;;25.71;45.17;101459.91;4905007;28;97259;-78
2023/08/07 08:41:06;;;;;;;1.42;0.50;;;;;;;25.71;45.11;101462.66;4910459;28;97878;-79
2023/08/07 08:43:35;;;;;;;1.02;0.47;;;;;;;25.72;45.18;101458.84;4912738;28;96745;-78
2023/08/07 08:46:05;;;;;;;0.90;0.52;;;;;;;25.73;44.86;101467.97;4891753;28;97463;-78
2023/08/07 08:48:35;;;;;;;1.80;0.70;;;;;;;25.72;45.07;101461.59;4911370;28;96908;-79
2023/08/07 08:51:03;;;;;;;1.00;0.60;;;;;;;25.72;44.93;101458.84;4912830;28;97569;-78
2023/08/07 08:53:32;;;;;;;0.82;0.47;;;;;;;25.72;45.18;101458.84;4911426;28;96761;-78
2023/08/07 08:56:00;;;;;;;1.25;0.52;;;;;;;25.73;44.96;101452.31;4895715;28;97053;-78
2023/08/07 08:58:28;;;;;;;1.08;0.60;;;;;;;25.74;45.17;101461.41;4911893;28;100160;-78
2023/08/07 09:00:54;;;;;;;2.45;0.90;;;;;;;25.74;45.19;101450.41;4908792;28;96794;-77
2023/08/07 09:03:21;;;;;;;0.85;0.50;;;;;;;25.73;45.18;101457.81;4911433;28;96688;-77
2023/08/07 09:05:49;;;;;;;0.88;0.63;;;;;;;25.75;45.09;101463.97;4905569;28;97075;-78
2023/08/07 09:08:16;;;;;;;2.03;0.80;;;;;;;25.74;45.18;101456.75;4910332;28;97491;-77
2023/08/07 09:10:43;;;;;;;1.65;0.60;;;;;;;25.75;45.17;101452.13;4909223;28;97089;-76
2023/08/07 09:13:14;;;;;;;1.15;0.70;;;;;;;25.76;45.23;101459.31;4912916;28;96661;-76
2023/08/07 09:15:47;;;;;;;1.20;0.60;;;;;;;25.76;44.96;101467.56;4887971;28;96963;-77
2023/08/07 09:18:15;;;;;;;1.33;0.82;;;;;;;25.76;45.45;101464.81;4908124;28;97667;-78
2023/08/07 09:20:42;;;;;;;1.35;0.50;;;;;;;25.76;45.17;101476.69;4910050;28;97334;-77
2023/08/07 09:23:09;;;;;;;1.50;0.70;;;;;;;25.76;45.12;101476.69;4906760;28;97146;-76
2023/08/07 09:25:35;;;;;;;1.42;0.50;;;;;;;25.77;45.05;101469.28;4909094;28;96858;-77
2023/08/07 09:28:04;;;;;;;1.80;0.60;;;;;;;25.77;45.14;101478.38;4891058;28;97907;-77
2023/08/07 09:30:31;;;;;;;1.80;0.80;;;;;;;25.77;45.12;101483.03;4910840;28;97709;-77
2023/08/07 09:32:59;;;;;;;1.63;0.55;;;;;;;25.77;45.16;101489.41;4912962;28;97124;-77
2023/08/07 09:35:26;;;;;;;2.13;0.60;;;;;;;25.78;45.22;101487.50;4906543;28;96674;-77
2023/08/07 09:37:53;;;;;;;2.03;0.70;;;;;;;25.78;45.10;101480.09;4904299;28;98578;-78
2023/08/07 09:40:19;;;;;;;1.73;0.60;;;;;;;25.79;45.14;101498.31;4910031;28;96827;-77
2023/08/07 09:42:51;;;;;;;1.33;0.80;;;;;;;25.80;45.15;101489.00;4908625;28;97041;-77
2023/08/07 09:45:22;;;;;;;1.77;0.70;;;;;;;25.79;45.31;101490.06;4911517;28;97342;-77
2023/08/07 09:48:03;;;;;;;1.52;0.80;;;;;;;25.81;45.13;101493.47;4910882;28;97731;-77
2023/08/07 09:50:31;;;;;;;1.67;0.52;;;;;;;25.79;45.16;101490.06;4906832;28;96889;-76
2023/08/07 09:52:58;;;;;;;2.10;0.70;;;;;;;25.79;45.19;101500.22;4906341;28;96738;-77
2023/08/07 09:55:25;;;;;;;1.05;0.60;;;;;;;25.79;44.96;101498.31;4894144;28;97093;-77
2023/08/07 09:57:54;;;;;;;1.63;0.80;;;;;;;25.80;45.16;101493.66;4894695;28;100144;-77
2023/08/07 10:00:21;;;;;;;2.10;0.95;;;;;;;25.80;45.10;101486.25;4909817;28;97240;-77
2023/08/07 10:02:49;;;;;;;1.52;0.80;;;;;;;25.80;45.12;101500.00;4905076;28;96914;-76
2023/08/07 10:05:17;;;;;;;3.45;0.90;;;;;;;25.81;45.08;101492.63;4900851;28;96782;-77
2023/08/07 10:07:44;;;;;;;1.50;0.80;;;;;;;25.81;45.04;101492.63;4922542;28;100685;-76
2023/08/07 10:10:11;;;;;;;1.65;0.90;;;;;;;25.81;45.07;101500.88;4909206;28;100513;-76
2023/08/07 10:12:38;;;;;;;2.97;0.70;;;;;;;25.82;45.09;101502.56;4901328;28;96899;-76
2023/08/07 10:15:06;;;;;;;1.25;0.70;;;;;;;25.81;44.96;101501.72;4900152;28;97011;-76
2023/08/07 10:17:33;;;;;;;2.03;0.70;;;;;;;25.83;45.08;101507.03;4890605;28;98751;-77
2023/08/07 10:20:00;;;;;;;3.00;0.90;;;;;;;25.80;45.10;101519.28;4904339;28;99559;-78
2023/08/07 10:22:30;;;;;;;1.90;0.88;;;;;;;25.82;45.09;101524.59;4906570;28;98147;-78
2023/08/07 10:24:59;;;;;;;2.05;0.65;;;;;;;25.82;44.91;101524.59;4902335;28;96874;-78
2023/08/07 10:27:27;;;;;;;1.77;0.90;;;;;;;25.82;45.02;101521.84;4905161;28;97306;-78
2023/08/07 10:29:58;;;;;;;1.70;0.82;;;;;;;25.82;44.97;101524.59;4896320;28;96727;-79
2023/08/07 10:32:25;;;;;;;3.10;0.80;;;;;;;25.81;44.78;101534.75;4904117;28;96735;-79
2023/08/07 10:34:52;;;;;;;1.77;1.00;;;;;;;25.81;45.07;101532.00;4901624;28;98553;-79
2023/08/07 10:37:39;;;;;;;1.02;0.80;;;;;;;25.82;44.97;101541.94;4902233;28;96810;-79
2023/08/07 10:40:09;;;;;;;1.60;0.80;;;;;;;25.81;44.97;101556.75;4906340;28;97513;-78
2023/08/07 10:43:17;;;;;;;2.22;0.80;;;;;;;25.81;45.18;101553.16;4904795;28;98103;-79
2023/08/07 10:45:44;;;;;;;2.78;0.80;;;;;;;25.80;45.04;101551.44;4881321;28;97354;-77
2023/08/07 10:48:12;;;;;;;1.45;0.85;;;;;;;25.80;44.83;101552.28;4890917;28;98845;-77
2023/08/07 10:50:53;;;;;;;2.38;1.10;;;;;;;25.80;44.90;101557.78;4907386;28;96688;-77
2023/08/07 10:53:38;;;;;;;3.47;1.00;;;;;;;25.80;44.97;101546.78;4906339;28;96750;-77
2023/08/07 10:56:08;;;;;;;1.98;0.80;;;;;;;25.81;45.04;101548.50;4902812;28;96827;-77
2023/08/07 10:58:39;;;;;;;1.67;0.70;;;;;;;25.81;44.90;101533.88;4901611;28;98293;-77
2023/08/07 11:01:19;;;;;;;1.60;0.88;;;;;;;25.81;44.82;101540.25;4888472;28;96832;-77
2023/08/07 11:03:49;;;;;;;1.30;0.70;;;;;;;25.82;44.83;101543.84;4906156;28;97155;-76
2023/08/07 11:06:17;;;;;;;1.27;0.80;;;;;;;25.82;44.91;101550.22;4905653;28;96851;-76
2023/08/07 11:08:44;;;;;;;1.27;0.70;;;;;;;25.83;45.33;101549.16;4912685;28;96998;-77
2023/08/07 11:11:10;;;;;;;1.65;0.82;;;;;;;25.83;44.71;101553.81;4910769;28;97923;-77
2023/08/07 11:13:37;;;;;;;2.58;1.08;;;;;;;25.84;45.05;101556.38;4906527;28;96796;-77
2023/08/07 11:16:04;;;;;;;1.52;0.90;;;;;;;25.84;44.90;101556.38;4912225;28;97491;-77
2023/08/07 11:18:32;;;;;;;1.40;0.90;;;;;;;25.85;45.04;101558.06;4913568;28;97400;-77
2023/08/07 11:20:59;;;;;;;2.80;0.90;;;;;;;25.85;44.94;101574.59;4905725;28;97509;-77
2023/08/07 11:23:27;;;;;;;2.05;1.17;;;;;;;25.85;44.83;101560.81;4894829;28;98194;-77
2023/08/07 11:25:54;;;;;;;1.52;0.90;;;;;;;25.86;44.84;101561.69;4911059;28;96891;-77
2023/08/07 11:28:21;;;;;;;1.30;0.80;;;;;;;25.86;44.79;101565.28;4906152;28;97812;-77